Time;durP1;ratioP1;P1;durP2;ratioP2;P2;SDS_P1;SDS_P2;PMS_P1;PMS_P2;Temp;Humidity;BMP_temperature;BMP_pressure;BME280_temperature;BME280_humidity;BME280_pressure;Samples;Min_cycle;Max_cycle;Signal;HPM_P1;HPM_P2
2021/07/16 00:00:46;;;;;;;;;;;25.40;99.90;;;;;;1924152;74;20208;-83
2021/07/16 00:03:16;;;;;;;;;;;25.40;99.90;;;;;;1931627;73;20188;-84
2021/07/16 00:05:46;;;;;;;;;;;25.40;99.90;;;;;;1927634;74;20480;-83
2021/07/16 00:08:16;;;;;;;;;;;25.50;99.90;;;;;;1923277;74;20160;-84
2021/07/16 00:10:47;;;;;;;;;;;25.50;99.90;;;;;;1926884;74;20461;-82
2021/07/16 00:13:16;;;;;;;;;;;25.50;99.90;;;;;;1922738;74;20132;-83
2021/07/16 00:15:46;;;;;;;;;;;25.50;99.90;;;;;;1925902;74;20196;-82
2021/07/16 00:18:16;;;;;;;;;;;25.50;99.90;;;;;;1931314;74;20122;-83
2021/07/16 00:20:47;;;;;;;;;;;25.50;99.90;;;;;;1922161;74;20268;-83
2021/07/16 00:23:17;;;;;;;;;;;25.60;99.90;;;;;;1923566;74;20442;-84
2021/07/16 00:25:47;;;;;;;;;;;25.60;99.90;;;;;;1931141;73;20178;-83
2021/07/16 00:28:16;;;;;;;;;;;25.60;99.90;;;;;;1927481;74;20204;-84
2021/07/16 00:30:46;;;;;;;;;;;25.70;99.90;;;;;;1931386;74;20208;-82
2021/07/16 00:33:16;;;;;;;;;;;25.70;99.90;;;;;;1926738;73;20161;-83
2021/07/16 00:35:45;;;;;;;;;;;25.70;99.90;;;;;;1928881;74;20184;-84
2021/07/16 00:38:15;;;;;;;;;;;25.80;99.90;;;;;;1928377;73;20215;-83
2021/07/16 00:40:45;;;;;;;;;;;25.80;99.90;;;;;;1929337;73;20239;-83
2021/07/16 00:43:15;;;;;;;;;;;25.80;99.90;;;;;;1931045;73;20236;-83
2021/07/16 00:45:55;;;;;;;;;;;25.80;99.90;;;;;;1951159;71;20132;-80
2021/07/16 00:48:25;;;;;;;;;;;25.80;99.90;;;;;;1914139;74;20244;-82
2021/07/16 00:50:54;;;;;;;;;;;25.90;99.90;;;;;;1953300;72;20441;-83
2021/07/16 00:53:24;;;;;;;;;;;25.90;99.90;;;;;;1909442;73;20220;-82
2021/07/16 00:55:54;;;;;;;;;;;25.90;99.90;;;;;;1955350;71;20179;-84
2021/07/16 00:58:24;;;;;;;;;;;26.00;99.90;;;;;;1922275;74;20184;-82
2021/07/16 01:00:56;;;;;;;;;;;26.00;99.90;;;;;;1959032;72;20135;-83
2021/07/16 01:03:41;;;;;;;;;;;26.00;99.90;;;;;;1959619;72;20211;-81
2021/07/16 01:06:11;;;;;;;;;;;26.00;99.90;;;;;;1957952;72;20203;-83
2021/07/16 01:08:40;;;;;;;;;;;26.00;99.90;;;;;;1918710;72;20488;-79
2021/07/16 01:11:10;;;;;;;;;;;26.10;99.90;;;;;;1942565;73;20249;-79
2021/07/16 01:13:41;;;;;;;;;;;26.10;99.90;;;;;;1937162;73;20242;-80
2021/07/16 01:16:10;;;;;;;;;;;26.20;99.90;;;;;;1942492;73;20211;-79
2021/07/16 01:18:41;;;;;;;;;;;26.20;99.90;;;;;;1938328;73;20251;-80
2021/07/16 01:21:11;;;;;;;;;;;26.20;99.90;;;;;;1935301;73;20404;-80
2021/07/16 01:23:42;;;;;;;;;;;26.30;99.90;;;;;;1936259;73;20194;-80
2021/07/16 01:26:11;;;;;;;;;;;26.30;99.90;;;;;;1939553;73;20624;-80
2021/07/16 01:28:41;;;;;;;;;;;26.40;99.90;;;;;;1933931;73;20169;-79
2021/07/16 01:31:11;;;;;;;;;;;26.50;99.90;;;;;;1942389;73;20214;-79
2021/07/16 01:33:41;;;;;;;;;;;26.50;99.90;;;;;;1939095;72;20224;-79
2021/07/16 01:36:11;;;;;;;;;;;26.60;99.90;;;;;;1932415;73;20196;-80
2021/07/16 01:38:40;;;;;;;;;;;26.60;99.90;;;;;;1941251;73;20116;-80
2021/07/16 01:41:10;;;;;;;;;;;26.70;99.90;;;;;;1935860;73;20230;-80
2021/07/16 01:43:39;;;;;;;;;;;26.80;99.90;;;;;;1939661;73;20163;-81
2021/07/16 01:46:09;;;;;;;;;;;26.80;99.90;;;;;;1938491;73;20527;-80
2021/07/16 01:48:39;;;;;;;;;;;26.90;99.90;;;;;;1957268;72;20175;-79
2021/07/16 01:51:09;;;;;;;;;;;26.90;99.90;;;;;;1945193;72;20270;-80
2021/07/16 01:53:46;;;;;;;;;;;26.90;99.90;;;;;;1943755;72;20202;-79
2021/07/16 01:56:16;;;;;;;;;;;26.90;99.90;;;;;;1950415;73;20259;-80
2021/07/16 01:58:47;;;;;;;;;;;26.90;99.90;;;;;;1972198;72;20187;-78
2021/07/16 02:01:16;;;;;;;;;;;26.90;99.90;;;;;;1975337;72;20172;-80
2021/07/16 02:03:47;;;;;;;;;;;26.90;99.90;;;;;;1968891;72;20172;-79
2021/07/16 02:06:18;;;;;;;;;;;27.00;99.90;;;;;;1921526;74;20456;-80
2021/07/16 02:08:47;;;;;;;;;;;27.10;99.90;;;;;;1916185;73;20123;-80
2021/07/16 02:11:21;;;;;;;;;;;27.10;99.90;;;;;;1951782;73;20127;-80
2021/07/16 02:13:50;;;;;;;;;;;27.20;99.90;;;;;;1917685;74;20130;-81
2021/07/16 02:16:20;;;;;;;;;;;27.30;99.90;;;;;;1946192;72;20210;-81
2021/07/16 02:18:51;;;;;;;;;;;27.50;99.90;;;;;;1946589;73;20215;-83
2021/07/16 02:21:21;;;;;;;;;;;27.50;99.90;;;;;;1943102;72;20174;-82
2021/07/16 02:23:51;;;;;;;;;;;27.50;99.90;;;;;;1972837;72;20169;-82
2021/07/16 02:26:21;;;;;;;;;;;27.70;99.90;;;;;;1917467;74;20269;-82
2021/07/16 02:28:50;;;;;;;;;;;27.80;99.90;;;;;;1969809;72;20168;-83
2021/07/16 02:31:20;;;;;;;;;;;27.90;99.90;;;;;;1974115;72;20200;-82
2021/07/16 02:33:53;;;;;;;;;;;28.00;99.90;;;;;;1966623;71;20134;-80
2021/07/16 02:36:30;;;;;;;;;;;28.10;99.90;;;;;;1969981;71;20428;-79
2021/07/16 02:38:55;;;;;;;;;;;28.20;99.90;;;;;;1969232;72;20200;-82
2021/07/16 02:41:25;;;;;;;;;;;28.20;99.90;;;;;;1968548;72;20167;-82
2021/07/16 02:43:54;;;;;;;;;;;28.30;99.90;;;;;;1970006;72;20202;-78
2021/07/16 02:46:24;;;;;;;;;;;28.40;99.90;;;;;;1964936;72;20198;-82
2021/07/16 02:48:54;;;;;;;;;;;28.50;99.90;;;;;;1968961;72;20468;-81
2021/07/16 02:51:23;;;;;;;;;;;28.50;99.90;;;;;;1964762;72;20250;-80
2021/07/16 02:53:53;;;;;;;;;;;28.60;99.90;;;;;;1970076;72;20180;-80
2021/07/16 02:56:23;;;;;;;;;;;28.70;99.90;;;;;;1935770;73;20192;-78
2021/07/16 02:58:53;;;;;;;;;;;28.80;99.90;;;;;;1945125;71;20161;-79
2021/07/16 03:01:22;;;;;;;;;;;28.90;99.90;;;;;;1953263;71;20203;-81
2021/07/16 03:03:52;;;;;;;;;;;29.10;99.90;;;;;;1949200;71;20223;-80
2021/07/16 03:06:25;;;;;;;;;;;29.20;99.10;;;;;;1938591;73;20152;-79
2021/07/16 03:08:54;;;;;;;;;;;29.30;99.10;;;;;;1932461;73;20214;-80
2021/07/16 03:11:24;;;;;;;;;;;29.50;98.60;;;;;;1926005;73;20202;-78
2021/07/16 03:13:54;;;;;;;;;;;29.50;97.70;;;;;;1961249;72;20492;-80
2021/07/16 03:16:24;;;;;;;;;;;29.50;97.30;;;;;;1956509;72;20187;-83
2021/07/16 03:18:54;;;;;;;;;;;29.40;97.90;;;;;;1958880;72;20467;-81
2021/07/16 03:21:24;;;;;;;;;;;29.30;97.60;;;;;;1959492;72;20173;-82
2021/07/16 03:23:54;;;;;;;;;;;29.30;96.80;;;;;;1945403;73;20225;-83
2021/07/16 03:26:23;;;;;;;;;;;29.20;97.30;;;;;;1942007;72;20225;-83
2021/07/16 03:28:55;;;;;;;;;;;29.20;97.20;;;;;;1939296;73;20213;-80
2021/07/16 03:31:24;;;;;;;;;;;29.10;97.50;;;;;;1939465;73;20195;-82
2021/07/16 03:33:58;;;;;;;;;;;29.10;97.30;;;;;;1942428;73;20222;-79
2021/07/16 03:36:27;;;;;;;;;;;29.10;97.60;;;;;;1937451;73;20194;-80
2021/07/16 03:39:00;;;;;;;;;;;29.20;97.20;;;;;;1932275;73;20647;-83
2021/07/16 03:41:30;;;;;;;;;;;29.20;97.00;;;;;;1938412;73;20183;-82
2021/07/16 03:43:59;;;;;;;;;;;29.20;96.80;;;;;;1931946;73;20238;-82
2021/07/16 03:46:29;;;;;;;;;;;29.20;96.60;;;;;;1938919;73;20421;-81
2021/07/16 03:48:59;;;;;;;;;;;29.30;96.50;;;;;;1933996;73;20192;-81
2021/07/16 03:51:31;;;;;;;;;;;29.30;96.90;;;;;;1933377;73;20187;-80
2021/07/16 03:54:01;;;;;;;;;;;29.30;97.00;;;;;;1931877;73;20546;-79
2021/07/16 03:56:30;;;;;;;;;;;29.30;96.80;;;;;;1935525;73;20230;-77
2021/07/16 03:59:00;;;;;;;;;;;29.30;96.90;;;;;;1936159;73;20772;-78
2021/07/16 04:01:30;;;;;;;;;;;29.30;96.60;;;;;;1940554;73;20394;-77
2021/07/16 04:04:00;;;;;;;;;;;29.20;96.30;;;;;;1937381;73;20240;-77
2021/07/16 04:06:31;;;;;;;;;;;29.30;96.80;;;;;;1957370;72;20488;-77
2021/07/16 04:09:26;;;;;;;;;;;29.40;97.00;;;;;;1936055;74;20247;-77
2021/07/16 04:11:32;;;;;;;;;;;29.60;97.00;;;;;;1921124;73;20495;-81
2021/07/16 04:14:02;;;;;;;;;;;29.80;96.30;;;;;;1922712;73;20199;-77
2021/07/16 04:16:33;;;;;;;;;;;29.90;95.10;;;;;;1910198;74;20232;-78
2021/07/16 04:19:02;;;;;;;;;;;29.90;94.80;;;;;;1906835;73;20175;-79
2021/07/16 04:21:32;;;;;;;;;;;30.00;95.30;;;;;;1919301;74;20236;-77
2021/07/16 04:24:01;;;;;;;;;;;30.00;94.50;;;;;;1926887;73;20201;-78
2021/07/16 04:26:31;;;;;;;;;;;30.10;93.60;;;;;;1891456;74;20168;-78
2021/07/16 04:29:02;;;;;;;;;;;30.10;92.70;;;;;;1921426;74;20495;-77
2021/07/16 04:31:32;;;;;;;;;;;30.10;94.00;;;;;;1890936;73;20494;-78
2021/07/16 04:34:02;;;;;;;;;;;30.10;93.20;;;;;;1907673;73;20210;-78
2021/07/16 04:36:33;;;;;;;;;;;30.30;92.70;;;;;;1904480;75;20200;-77
2021/07/16 04:39:03;;;;;;;;;;;30.30;93.10;;;;;;1892591;75;20250;-78
2021/07/16 04:41:33;;;;;;;;;;;30.40;92.80;;;;;;1921276;74;20250;-79
2021/07/16 04:44:02;;;;;;;;;;;30.30;92.80;;;;;;1918685;73;20645;-77
2021/07/16 04:46:32;;;;;;;;;;;30.30;92.90;;;;;;1883695;75;20129;-77
2021/07/16 04:49:02;;;;;;;;;;;30.20;93.50;;;;;;1916927;74;20183;-78
2021/07/16 04:51:33;;;;;;;;;;;30.10;93.90;;;;;;1886199;75;20122;-78
2021/07/16 04:54:04;;;;;;;;;;;30.00;94.40;;;;;;1909029;74;20217;-77
2021/07/16 04:56:34;;;;;;;;;;;29.80;94.60;;;;;;1919483;74;20480;-78
2021/07/16 04:59:05;;;;;;;;;;;29.70;94.60;;;;;;1925779;74;20278;-78
2021/07/16 05:01:34;;;;;;;;;;;29.70;95.10;;;;;;1925712;73;20213;-79
2021/07/16 05:04:05;;;;;;;;;;;29.60;95.60;;;;;;1922180;73;20583;-80
2021/07/16 05:06:34;;;;;;;;;;;29.60;95.90;;;;;;1931334;74;20288;-79
2021/07/16 05:09:04;;;;;;;;;;;29.60;95.40;;;;;;1921404;74;20158;-79
2021/07/16 05:11:34;;;;;;;;;;;29.60;95.20;;;;;;1916042;73;20158;-79
2021/07/16 05:14:03;;;;;;;;;;;29.60;95.10;;;;;;1920421;74;20197;-80
2021/07/16 05:16:33;;;;;;;;;;;29.60;94.70;;;;;;1921096;74;20217;-78
2021/07/16 05:19:03;;;;;;;;;;;29.70;95.40;;;;;;1916399;73;20403;-78
2021/07/16 05:21:33;;;;;;;;;;;29.90;95.10;;;;;;1921600;74;20443;-79
2021/07/16 05:24:03;;;;;;;;;;;30.10;94.70;;;;;;1918922;74;20209;-78
2021/07/16 05:26:32;;;;;;;;;;;30.30;95.20;;;;;;1922148;73;20189;-78
2021/07/16 05:29:02;;;;;;;;;;;30.50;93.60;;;;;;1919491;74;20428;-79
2021/07/16 05:31:32;;;;;;;;;;;30.80;95.30;;;;;;1894705;75;20507;-77
2021/07/16 05:34:02;;;;;;;;;;;31.00;95.30;;;;;;1901653;75;20432;-77
2021/07/16 05:36:31;;;;;;;;;;;31.10;93.30;;;;;;1889310;75;20199;-78
2021/07/16 05:39:04;;;;;;;;;;;31.00;91.60;;;;;;1874344;76;20222;-78
2021/07/16 05:41:33;;;;;;;;;;;31.10;92.00;;;;;;1877996;76;20401;-77
2021/07/16 05:44:03;;;;;;;;;;;31.00;91.70;;;;;;1899309;74;20207;-78
2021/07/16 05:46:38;;;;;;;;;;;30.90;92.30;;;;;;1895196;74;20443;-77
2021/07/16 05:49:08;;;;;;;;;;;30.80;93.30;;;;;;1903819;73;20455;-78
2021/07/16 05:51:37;;;;;;;;;;;30.90;93.00;;;;;;1915310;73;20519;-78
2021/07/16 05:54:07;;;;;;;;;;;31.00;93.30;;;;;;1908994;73;20256;-78
2021/07/16 05:56:40;;;;;;;;;;;31.10;93.20;;;;;;1905131;74;20229;-78
2021/07/16 05:59:09;;;;;;;;;;;31.30;92.50;;;;;;1908609;74;20187;-79
2021/07/16 06:01:38;;;;;;;;;;;31.30;92.00;;;;;;1939700;73;20130;-78
2021/07/16 06:04:11;;;;;;;;;;;31.40;91.60;;;;;;1914769;74;20155;-79
2021/07/16 06:06:39;;;;;;;;;;;31.50;91.10;;;;;;1944139;73;20221;-79
2021/07/16 06:09:10;;;;;;;;;;;;;;;;;;1931355;73;20196;-77
2021/07/16 06:11:40;;;;;;;;;;;31.70;89.30;;;;;;1920552;74;20172;-80
2021/07/16 06:14:14;;;;;;;;;;;31.70;90.20;;;;;;1924914;74;20538;-77
2021/07/16 06:16:43;;;;;;;;;;;31.70;91.10;;;;;;1940363;73;20486;-79
2021/07/16 06:19:13;;;;;;;;;;;31.50;91.80;;;;;;1993056;71;20198;-78
2021/07/16 06:21:43;;;;;;;;;;;31.30;91.90;;;;;;1979985;71;20191;-78
2021/07/16 06:24:13;;;;;;;;;;;31.10;92.10;;;;;;1993301;71;20234;-78
2021/07/16 06:26:43;;;;;;;;;;;30.90;91.90;;;;;;1977651;71;20282;-78
2021/07/16 06:29:13;;;;;;;;;;;30.70;92.00;;;;;;1986564;71;20216;-78
2021/07/16 06:31:43;;;;;;;;;;;30.70;91.90;;;;;;1985021;71;20170;-80
2021/07/16 06:34:13;;;;;;;;;;;30.50;92.00;;;;;;1985774;71;20228;-79
2021/07/16 06:36:42;;;;;;;;;;;30.40;91.60;;;;;;1988085;71;20256;-78
2021/07/16 06:39:12;;;;;;;;;;;30.30;92.10;;;;;;1985018;71;20253;-78
2021/07/16 06:41:43;;;;;;;;;;;30.10;92.20;;;;;;1988018;71;20172;-78
2021/07/16 06:44:12;;;;;;;;;;;30.00;92.60;;;;;;1987146;71;20167;-77
2021/07/16 06:46:43;;;;;;;;;;;29.90;92.80;;;;;;1982062;71;20210;-77
2021/07/16 06:49:13;;;;;;;;;;;29.80;93.80;;;;;;1988925;71;20137;-77
2021/07/16 06:51:43;;;;;;;;;;;29.70;93.80;;;;;;1987110;71;20456;-77
2021/07/16 06:54:13;;;;;;;;;;;29.70;93.30;;;;;;1987787;71;20245;-77
2021/07/16 06:56:42;;;;;;;;;;;29.60;93.30;;;;;;1930723;73;20217;-77
2021/07/16 06:59:12;;;;;;;;;;;29.50;93.50;;;;;;1902594;74;20222;-78
2021/07/16 07:01:42;;;;;;;;;;;29.40;93.10;;;;;;1921200;74;20201;-78
2021/07/16 07:04:13;;;;;;;;;;;29.50;93.40;;;;;;1918293;73;20229;-77
2021/07/16 07:06:43;;;;;;;;;;;29.40;93.10;;;;;;1921792;74;20175;-77
2021/07/16 07:09:13;;;;;;;;;;;29.40;93.30;;;;;;1916799;74;20158;-78
2021/07/16 07:11:43;;;;;;;;;;;29.50;93.40;;;;;;1923336;73;20185;-78
2021/07/16 07:14:12;;;;;;;;;;;29.50;93.60;;;;;;1918631;74;20237;-79
2021/07/16 07:16:42;;;;;;;;;;;29.60;93.40;;;;;;1900718;75;20456;-77
2021/07/16 07:19:12;;;;;;;;;;;29.60;93.50;;;;;;1923983;73;20441;-78
2021/07/16 07:21:48;;;;;;;;;;;29.70;93.20;;;;;;1914025;74;20190;-77
2021/07/16 07:24:17;;;;;;;;;;;29.70;93.20;;;;;;1900991;74;20192;-77
2021/07/16 07:26:53;;;;;;;;;;;29.80;92.40;;;;;;1893966;74;20251;-77
2021/07/16 07:29:27;;;;;;;;;;;29.80;92.70;;;;;;1898219;75;20151;-78
2021/07/16 07:31:57;;;;;;;;;;;29.90;92.60;;;;;;1923684;73;20158;-77
2021/07/16 07:34:27;;;;;;;;;;;30.00;92.60;;;;;;1912755;74;20112;-76
2021/07/16 07:36:57;;;;;;;;;;;30.00;92.20;;;;;;1891796;73;20225;-77
2021/07/16 07:39:28;;;;;;;;;;;30.10;92.40;;;;;;1859931;75;20420;-77
2021/07/16 07:41:58;;;;;;;;;;;30.10;92.30;;;;;;1916033;73;20469;-78
2021/07/16 07:44:28;;;;;;;;;;;30.10;92.50;;;;;;1892191;75;20162;-78
2021/07/16 07:46:58;;;;;;;;;;;30.20;92.10;;;;;;1893377;75;20571;-77
2021/07/16 07:49:28;;;;;;;;;;;30.30;91.80;;;;;;1894838;75;20181;-79
2021/07/16 07:51:58;;;;;;;;;;;30.30;91.90;;;;;;1915160;74;20132;-77
2021/07/16 07:54:27;;;;;;;;;;;30.40;92.10;;;;;;1907328;74;20155;-78
2021/07/16 07:56:58;;;;;;;;;;;30.50;91.10;;;;;;1922731;74;20159;-78
2021/07/16 07:59:30;;;;;;;;;;;30.50;90.70;;;;;;1928496;74;20203;-76
2021/07/16 08:02:00;;;;;;;;;;;30.50;90.20;;;;;;1928696;74;20225;-76
2021/07/16 08:04:30;;;;;;;;;;;30.50;90.50;;;;;;1885399;75;20447;-75
2021/07/16 08:07:00;;;;;;;;;;;30.60;90.50;;;;;;1898074;75;20261;-77
2021/07/16 08:09:30;;;;;;;;;;;30.60;91.30;;;;;;1900915;74;20244;-78
2021/07/16 08:12:01;;;;;;;;;;;30.70;91.70;;;;;;1893591;75;20219;-75
2021/07/16 08:14:30;;;;;;;;;;;30.70;91.10;;;;;;1890582;75;20843;-77
2021/07/16 08:17:00;;;;;;;;;;;30.80;91.50;;;;;;1892663;75;20193;-76
2021/07/16 08:19:31;;;;;;;;;;;30.80;90.70;;;;;;1899060;74;20212;-76
2021/07/16 08:22:01;;;;;;;;;;;30.80;91.00;;;;;;1898575;74;20504;-77
2021/07/16 08:24:31;;;;;;;;;;;30.90;90.90;;;;;;1901232;75;20189;-78
2021/07/16 08:27:02;;;;;;;;;;;31.00;91.40;;;;;;1890330;75;20204;-76
2021/07/16 08:29:31;;;;;;;;;;;30.90;91.30;;;;;;1891411;75;20172;-77
2021/07/16 08:32:01;;;;;;;;;;;30.90;90.90;;;;;;1905913;74;20229;-76
2021/07/16 08:34:31;;;;;;;;;;;31.00;91.20;;;;;;1897938;74;20165;-77
2021/07/16 08:37:01;;;;;;;;;;;31.00;91.40;;;;;;1897304;74;20257;-77
2021/07/16 08:39:31;;;;;;;;;;;31.10;90.60;;;;;;1896365;74;20167;-76
2021/07/16 08:42:02;;;;;;;;;;;31.20;90.80;;;;;;1899834;74;20211;-75
2021/07/16 08:44:32;;;;;;;;;;;31.30;90.70;;;;;;1896172;74;20183;-76
2021/07/16 08:47:02;;;;;;;;;;;31.30;90.70;;;;;;1895731;74;20512;-75
2021/07/16 08:49:33;;;;;;;;;;;31.40;90.80;;;;;;1896330;74;20452;-78
2021/07/16 08:52:02;;;;;;;;;;;31.40;90.40;;;;;;1897726;74;20232;-78
2021/07/16 08:54:32;;;;;;;;;;;31.40;90.10;;;;;;1894682;74;20130;-79
2021/07/16 08:57:02;;;;;;;;;;;31.50;90.10;;;;;;1897105;74;20197;-78
2021/07/16 08:59:32;;;;;;;;;;;31.40;90.60;;;;;;1902798;74;20538;-76
2021/07/16 09:02:03;;;;;;;;;;;31.40;90.60;;;;;;1885472;74;20254;-77
2021/07/16 09:04:35;;;;;;;;;;;31.30;90.70;;;;;;1901592;74;20359;-76
2021/07/16 09:07:05;;;;;;;;;;;31.20;90.50;;;;;;1934965;73;20163;-77
2021/07/16 09:09:39;;;;;;;;;;;31.20;90.60;;;;;;1917859;74;20386;-76
2021/07/16 09:12:07;;;;;;;;;;;31.20;90.40;;;;;;1908940;74;20174;-77
2021/07/16 09:14:37;;;;;;;;;;;31.10;90.10;;;;;;1922235;73;20209;-76
2021/07/16 09:17:09;;;;;;;;;;;31.00;90.20;;;;;;1921521;73;20217;-81
2021/07/16 09:19:40;;;;;;;;;;;31.00;90.40;;;;;;1899213;74;20582;-77
2021/07/16 09:22:11;;;;;;;;;;;31.00;90.50;;;;;;1925554;73;20220;-77
2021/07/16 09:24:42;;;;;;;;;;;30.90;90.10;;;;;;1927794;73;20186;-77
2021/07/16 09:27:14;;;;;;;;;;;30.80;90.20;;;;;;1927261;73;20205;-77
2021/07/16 09:29:43;;;;;;;;;;;30.90;90.80;;;;;;1925947;73;20169;-77
2021/07/16 09:32:15;;;;;;;;;;;30.90;89.30;;;;;;1908888;74;20199;-78
2021/07/16 09:34:46;;;;;;;;;;;30.90;90.40;;;;;;1898240;74;20235;-78
2021/07/16 09:37:15;;;;;;;;;;;31.00;90.40;;;;;;1898493;75;20220;-77
2021/07/16 09:39:47;;;;;;;;;;;31.00;90.30;;;;;;1894990;74;20219;-77
2021/07/16 09:42:17;;;;;;;;;;;31.00;90.50;;;;;;1896475;74;20140;-76
2021/07/16 09:44:46;;;;;;;;;;;31.00;90.30;;;;;;1902212;74;20456;-77
2021/07/16 09:47:17;;;;;;;;;;;31.00;90.40;;;;;;1919599;73;20513;-76
2021/07/16 09:49:48;;;;;;;;;;;31.00;90.30;;;;;;1909209;74;20159;-77
2021/07/16 09:52:19;;;;;;;;;;;31.00;90.00;;;;;;1870874;75;20271;-77
2021/07/16 09:54:50;;;;;;;;;;;30.90;90.10;;;;;;1917765;73;20120;-77
2021/07/16 09:57:21;;;;;;;;;;;30.80;90.10;;;;;;1918976;73;20201;-77
2021/07/16 09:59:51;;;;;;;;;;;30.80;90.20;;;;;;1923839;73;20477;-78
2021/07/16 10:02:20;;;;;;;;;;;30.80;90.40;;;;;;1875998;76;20179;-77
2021/07/16 10:04:50;;;;;;;;;;;30.80;90.60;;;;;;1917749;73;20253;-76
2021/07/16 10:07:22;;;;;;;;;;;30.80;90.50;;;;;;1918604;74;20409;-78
2021/07/16 10:09:52;;;;;;;;;;;30.80;90.70;;;;;;1922686;73;20287;-77
2021/07/16 10:12:21;;;;;;;;;;;30.80;90.70;;;;;;1900164;75;20618;-77
2021/07/16 10:14:52;;;;;;;;;;;30.80;90.10;;;;;;1896235;74;20133;-78
2021/07/16 10:17:22;;;;;;;;;;;30.80;90.50;;;;;;1926286;73;20243;-78
2021/07/16 10:19:52;;;;;;;;;;;30.80;90.80;;;;;;1929320;73;20566;-77
2021/07/16 10:22:26;;;;;;;;;;;30.80;90.60;;;;;;1907878;74;20150;-77
2021/07/16 10:24:53;;;;;;;;;;;30.80;90.20;;;;;;1915300;73;20177;-77
2021/07/16 10:27:23;;;;;;;;;;;30.80;90.20;;;;;;1894523;73;20245;-78
2021/07/16 10:29:54;;;;;;;;;;;30.80;90.20;;;;;;1893118;74;20251;-78
2021/07/16 10:32:25;;;;;;;;;;;30.80;90.30;;;;;;1889235;75;20225;-77
2021/07/16 10:34:56;;;;;;;;;;;30.80;90.10;;;;;;1909724;74;20426;-76
2021/07/16 10:37:27;;;;;;;;;;;30.80;89.70;;;;;;1903077;74;20230;-77
2021/07/16 10:39:57;;;;;;;;;;;30.80;90.20;;;;;;1903004;74;20238;-78
2021/07/16 10:42:29;;;;;;;;;;;30.70;90.00;;;;;;1901378;75;20239;-78
2021/07/16 10:45:00;;;;;;;;;;;30.80;90.10;;;;;;1903530;75;20181;-77
2021/07/16 10:47:34;;;;;;;;;;;30.70;90.30;;;;;;1895253;75;20174;-78
2021/07/16 10:50:08;;;;;;;;;;;30.70;90.10;;;;;;1894978;73;20136;-76
2021/07/16 10:52:39;;;;;;;;;;;30.70;90.00;;;;;;1899973;74;20260;-77
2021/07/16 10:55:10;;;;;;;;;;;30.70;90.20;;;;;;1895819;74;20190;-77
2021/07/16 10:57:41;;;;;;;;;;;30.70;90.00;;;;;;1902187;74;20171;-76
2021/07/16 11:00:14;;;;;;;;;;;30.70;89.80;;;;;;1897947;74;20242;-77
2021/07/16 11:02:45;;;;;;;;;;;30.70;90.00;;;;;;1900375;74;20196;-78
2021/07/16 11:05:16;;;;;;;;;;;30.70;90.00;;;;;;1905090;74;20167;-80
2021/07/16 11:07:45;;;;;;;;;;;30.60;90.00;;;;;;1905543;74;20185;-78
2021/07/16 11:10:19;;;;;;;;;;;30.60;90.20;;;;;;1902043;74;20216;-77
2021/07/16 11:12:48;;;;;;;;;;;30.60;90.30;;;;;;1903780;74;20171;-76
2021/07/16 11:15:20;;;;;;;;;;;30.60;90.10;;;;;;1899098;74;20237;-77
2021/07/16 11:17:50;;;;;;;;;;;30.60;89.90;;;;;;1903789;74;20209;-77
2021/07/16 11:20:21;;;;;;;;;;;30.50;90.20;;;;;;1913799;74;20181;-78
2021/07/16 11:22:54;;;;;;;;;;;30.50;90.00;;;;;;1899095;74;20171;-78
2021/07/16 11:25:25;;;;;;;;;;;30.50;90.30;;;;;;1903730;73;20129;-79
2021/07/16 11:27:55;;;;;;;;;;;30.50;90.30;;;;;;1901400;75;20196;-77
2021/07/16 11:30:29;;;;;;;;;;;30.40;90.10;;;;;;1902533;74;20440;-76
2021/07/16 11:33:00;;;;;;;;;;;30.50;90.30;;;;;;1891466;74;20229;-77
2021/07/16 11:35:30;;;;;;;;;;;30.50;90.50;;;;;;1896618;74;20157;-77
2021/07/16 11:38:01;;;;;;;;;;;30.40;90.90;;;;;;1891287;74;20192;-78
2021/07/16 11:40:31;;;;;;;;;;;30.40;90.90;;;;;;1900299;74;20196;-77
2021/07/16 11:43:02;;;;;;;;;;;30.40;90.80;;;;;;1887766;75;20239;-78
2021/07/16 11:45:36;;;;;;;;;;;30.30;90.90;;;;;;1909334;73;20622;-77
2021/07/16 11:48:36;;;;;;;;;;;30.30;91.60;;;;;;1899629;73;20182;-78
2021/07/16 11:51:07;;;;;;;;;;;30.20;91.10;;;;;;1882615;75;20184;-78
2021/07/16 11:53:37;;;;;;;;;;;30.20;91.10;;;;;;1930503;73;20117;-78
2021/07/16 11:56:07;;;;;;;;;;;30.20;91.60;;;;;;1936489;73;20215;-76
2021/07/16 11:58:38;;;;;;;;;;;30.20;91.70;;;;;;1935786;73;20507;-78
2021/07/16 12:01:09;;;;;;;;;;;30.20;91.90;;;;;;1895819;75;20484;-77
2021/07/16 12:03:39;;;;;;;;;;;30.20;91.90;;;;;;1906636;75;20134;-78
2021/07/16 12:06:09;;;;;;;;;;;30.10;91.70;;;;;;1927576;73;20197;-77
2021/07/16 12:08:41;;;;;;;;;;;30.10;92.00;;;;;;1913796;74;20204;-78
2021/07/16 12:11:13;;;;;;;;;;;30.10;92.20;;;;;;1901824;75;20130;-77
2021/07/16 12:13:44;;;;;;;;;;;30.10;92.30;;;;;;1892893;75;20219;-77
2021/07/16 12:16:16;;;;;;;;;;;30.10;92.20;;;;;;1902341;74;20238;-78
2021/07/16 12:18:46;;;;;;;;;;;30.10;92.60;;;;;;1929761;73;20134;-78
2021/07/16 12:21:24;;;;;;;;;;;30.00;92.50;;;;;;1935674;73;20196;-81
2021/07/16 12:23:52;;;;;;;;;;;30.00;92.50;;;;;;1898323;73;20193;-75
2021/07/16 12:26:23;;;;;;;;;;;30.00;92.70;;;;;;1922073;73;20134;-77
2021/07/16 12:28:54;;;;;;;;;;;30.00;92.80;;;;;;1912463;74;20529;-78
2021/07/16 12:31:24;;;;;;;;;;;30.00;92.90;;;;;;1932457;73;20201;-77
2021/07/16 12:33:53;;;;;;;;;;;30.00;93.00;;;;;;1933144;73;20519;-77
2021/07/16 12:36:25;;;;;;;;;;;29.90;93.00;;;;;;1887062;75;20264;-78
2021/07/16 12:38:57;;;;;;;;;;;29.90;93.00;;;;;;1934788;74;20221;-78
2021/07/16 12:41:27;;;;;;;;;;;29.90;93.00;;;;;;1902658;74;20213;-77
2021/07/16 12:44:16;;;;;;;;;;;29.80;93.10;;;;;;1900814;75;20515;-79
2021/07/16 12:46:49;;;;;;;;;;;29.90;93.30;;;;;;1867155;76;20262;-76
2021/07/16 12:49:19;;;;;;;;;;;29.80;93.30;;;;;;1869656;76;20240;-77
2021/07/16 12:51:48;;;;;;;;;;;29.80;93.40;;;;;;1864404;77;20228;-78
2021/07/16 12:54:21;;;;;;;;;;;29.70;93.40;;;;;;1874337;75;20250;-78
2021/07/16 12:56:52;;;;;;;;;;;29.70;93.50;;;;;;1871627;76;20209;-78
2021/07/16 12:59:22;;;;;;;;;;;29.70;93.60;;;;;;1880559;75;20228;-78
2021/07/16 13:01:53;;;;;;;;;;;29.70;93.60;;;;;;1838884;78;20214;-77
2021/07/16 13:04:25;;;;;;;;;;;29.70;93.60;;;;;;1835324;76;20206;-78
2021/07/16 13:06:59;;;;;;;;;;;29.70;93.80;;;;;;1843815;76;20179;-79
2021/07/16 13:09:27;;;;;;;;;;;29.60;93.90;;;;;;1838681;76;20500;-78
2021/07/16 13:11:58;;;;;;;;;;;29.50;93.90;;;;;;1838532;78;20132;-79
2021/07/16 13:14:32;;;;;;;;;;;29.50;94.00;;;;;;1808030;78;20450;-76
2021/07/16 13:17:03;;;;;;;;;;;29.40;94.10;;;;;;1841792;77;20167;-78
2021/07/16 13:19:33;;;;;;;;;;;29.50;94.20;;;;;;1839394;78;20669;-78
2021/07/16 13:22:03;;;;;;;;;;;29.50;94.30;;;;;;1849497;77;20195;-78
2021/07/16 13:24:33;;;;;;;;;;;29.50;94.50;;;;;;1880899;75;20185;-77
2021/07/16 13:27:03;;;;;;;;;;;29.40;94.40;;;;;;1867411;76;20239;-77
2021/07/16 13:29:33;;;;;;;;;;;29.40;94.50;;;;;;1838712;77;20281;-76
2021/07/16 13:32:03;;;;;;;;;;;29.50;94.60;;;;;;1869149;76;20134;-77
2021/07/16 13:34:32;;;;;;;;;;;29.40;94.60;;;;;;1861822;77;20205;-76
2021/07/16 13:37:02;;;;;;;;;;;29.40;94.60;;;;;;1866773;76;20566;-77
2021/07/16 13:39:32;;;;;;;;;;;29.50;94.70;;;;;;1867010;76;20413;-77
2021/07/16 13:42:02;;;;;;;;;;;29.40;94.70;;;;;;1875446;75;20220;-77
2021/07/16 13:44:32;;;;;;;;;;;29.40;94.70;;;;;;1881017;75;20434;-77
2021/07/16 13:47:03;;;;;;;;;;;29.40;94.70;;;;;;1873473;75;20120;-77
2021/07/16 13:49:33;;;;;;;;;;;29.40;94.90;;;;;;1825890;77;20455;-77
2021/07/16 13:52:03;;;;;;;;;;;29.40;94.90;;;;;;1828195;77;20227;-77
2021/07/16 13:54:33;;;;;;;;;;;29.40;95.00;;;;;;1872442;75;20229;-77
2021/07/16 13:57:03;;;;;;;;;;;29.40;94.90;;;;;;1871707;76;20205;-78
2021/07/16 13:59:32;;;;;;;;;;;29.40;95.00;;;;;;1876032;75;20217;-78
2021/07/16 14:02:03;;;;;;;;;;;29.40;95.20;;;;;;1862358;75;20193;-76
2021/07/16 14:04:36;;;;;;;;;;;29.40;95.40;;;;;;1869518;75;20254;-79
2021/07/16 14:07:06;;;;;;;;;;;29.30;95.60;;;;;;1876676;75;20314;-77
2021/07/16 14:09:36;;;;;;;;;;;29.30;95.30;;;;;;1829375;78;20203;-78
2021/07/16 14:12:05;;;;;;;;;;;29.30;95.30;;;;;;1848906;77;20291;-77
2021/07/16 14:14:35;;;;;;;;;;;29.40;95.30;;;;;;1853256;75;20221;-77
2021/07/16 14:17:05;;;;;;;;;;;29.30;95.30;;;;;;1859660;75;20217;-78
2021/07/16 14:19:35;;;;;;;;;;;29.40;95.30;;;;;;1869794;76;20216;-77
2021/07/16 14:22:05;;;;;;;;;;;29.40;95.30;;;;;;1879875;76;20441;-79
2021/07/16 14:24:34;;;;;;;;;;;29.40;95.40;;;;;;1867633;75;20204;-79
2021/07/16 14:27:04;;;;;;;;;;;29.30;95.30;;;;;;1864409;76;20250;-78
2021/07/16 14:29:35;;;;;;;;;;;29.40;95.30;;;;;;1872929;76;20213;-78
2021/07/16 14:32:05;;;;;;;;;;;29.30;95.50;;;;;;1833439;77;20589;-80
2021/07/16 14:34:35;;;;;;;;;;;29.30;95.50;;;;;;1834503;77;20231;-78
2021/07/16 14:37:04;;;;;;;;;;;29.30;95.40;;;;;;1864525;75;20799;-77